Fort Benton, Montana
Current Conditions -  °F | °C
As of 2:56 PM on Tuesday 21 Oct 2014 (Local Time) from KGFA Reporting Station
Light Rain Light Rain  
Wind Chill: 42°   Ceiling: 3700
Heat Index: 47°   Visibility: 10mi
Dew Point: 46°   Wind: 14mph
Humidity: 94%   Direction: 250°WSW
Pressure: 29.79"   Gusts: NA
Location:  47.82°N, 110.67°W
Report Text: KGFA 212056Z AUTO 25012KT 10SM -RA FEW010 BKN037 09/08 A2979 RMK AO2 SLP094 P0011 T00860077 52028
Loading
Personal Weather Stations






























Interactive Weather Map
Tropical Storm Tracking
New forecast layout! Learn more

10-Day Weather Forecast

Advertisements
Track Severe Weather on mobile